sensor_id;sensor_type;location;lat;lon;timestamp;P1;durP1;ratioP1;P2;durP2;ratioP2
35364;SDS011;21464;48.112;11.530;2023-03-03T00:00:53;56.17;;;31.30;;
35364;SDS011;21464;48.112;11.530;2023-03-03T00:03:20;61.40;;;31.53;;
35364;SDS011;21464;48.112;11.530;2023-03-03T00:05:48;60.30;;;30.73;;
35364;SDS011;21464;48.112;11.530;2023-03-03T00:08:15;59.70;;;31.73;;
35364;SDS011;21464;48.112;11.530;2023-03-03T00:10:43;57.30;;;31.10;;
35364;SDS011;21464;48.112;11.530;2023-03-03T00:13:17;66.47;;;34.13;;
35364;SDS011;21464;48.112;11.530;2023-03-03T00:15:44;56.13;;;32.80;;
35364;SDS011;21464;48.112;11.530;2023-03-03T00:18:16;60.50;;;32.23;;
35364;SDS011;21464;48.112;11.530;2023-03-03T00:20:46;64.27;;;33.03;;
35364;SDS011;21464;48.112;11.530;2023-03-03T00:25:57;69.27;;;34.90;;
35364;SDS011;21464;48.112;11.530;2023-03-03T00:28:28;63.53;;;32.63;;
35364;SDS011;21464;48.112;11.530;2023-03-03T00:30:57;63.27;;;33.20;;
35364;SDS011;21464;48.112;11.530;2023-03-03T00:33:36;64.60;;;33.80;;
35364;SDS011;21464;48.112;11.530;2023-03-03T00:38:41;63.20;;;33.80;;
35364;SDS011;21464;48.112;11.530;2023-03-03T00:41:42;72.10;;;34.80;;
35364;SDS011;21464;48.112;11.530;2023-03-03T00:44:18;61.17;;;32.87;;
35364;SDS011;21464;48.112;11.530;2023-03-03T00:46:56;69.17;;;33.93;;
35364;SDS011;21464;48.112;11.530;2023-03-03T00:49:43;70.73;;;33.80;;
35364;SDS011;21464;48.112;11.530;2023-03-03T00:52:13;70.57;;;34.13;;
35364;SDS011;21464;48.112;11.530;2023-03-03T00:54:42;62.57;;;33.20;;
35364;SDS011;21464;48.112;11.530;2023-03-03T00:57:09;66.83;;;35.53;;
35364;SDS011;21464;48.112;11.530;2023-03-03T00:59:38;67.17;;;35.17;;
35364;SDS011;21464;48.112;11.530;2023-03-03T01:02:04;70.00;;;33.37;;
35364;SDS011;21464;48.112;11.530;2023-03-03T01:04:31;59.20;;;31.97;;
35364;SDS011;21464;48.112;11.530;2023-03-03T01:06:57;61.93;;;33.10;;
35364;SDS011;21464;48.112;11.530;2023-03-03T01:09:24;57.83;;;31.67;;
35364;SDS011;21464;48.112;11.530;2023-03-03T01:11:50;62.57;;;31.63;;
35364;SDS011;21464;48.112;11.530;2023-03-03T01:14:17;60.47;;;33.73;;
35364;SDS011;21464;48.112;11.530;2023-03-03T01:16:43;64.80;;;33.53;;
35364;SDS011;21464;48.112;11.530;2023-03-03T01:19:09;68.83;;;34.93;;
35364;SDS011;21464;48.112;11.530;2023-03-03T01:21:35;64.83;;;33.17;;
35364;SDS011;21464;48.112;11.530;2023-03-03T01:24:02;60.73;;;33.23;;
35364;SDS011;21464;48.112;11.530;2023-03-03T01:26:28;60.50;;;32.97;;
35364;SDS011;21464;48.112;11.530;2023-03-03T01:28:56;58.33;;;30.80;;
35364;SDS011;21464;48.112;11.530;2023-03-03T01:31:22;60.07;;;32.37;;
35364;SDS011;21464;48.112;11.530;2023-03-03T01:33:48;58.80;;;31.23;;
35364;SDS011;21464;48.112;11.530;2023-03-03T01:36:15;61.47;;;31.80;;
35364;SDS011;21464;48.112;11.530;2023-03-03T01:38:41;60.73;;;31.67;;
35364;SDS011;21464;48.112;11.530;2023-03-03T01:41:08;61.13;;;30.63;;
35364;SDS011;21464;48.112;11.530;2023-03-03T01:43:41;57.10;;;30.77;;
35364;SDS011;21464;48.112;11.530;2023-03-03T01:49:00;65.60;;;33.13;;
35364;SDS011;21464;48.112;11.530;2023-03-03T01:51:30;60.73;;;31.37;;
35364;SDS011;21464;48.112;11.530;2023-03-03T01:54:00;61.10;;;32.20;;
35364;SDS011;21464;48.112;11.530;2023-03-03T01:56:31;62.10;;;31.83;;
35364;SDS011;21464;48.112;11.530;2023-03-03T01:58:58;67.13;;;33.33;;
35364;SDS011;21464;48.112;11.530;2023-03-03T02:01:27;64.03;;;34.90;;
35364;SDS011;21464;48.112;11.530;2023-03-03T02:03:57;65.23;;;32.23;;
35364;SDS011;21464;48.112;11.530;2023-03-03T02:06:25;64.67;;;34.37;;
35364;SDS011;21464;48.112;11.530;2023-03-03T02:08:59;67.07;;;33.70;;
35364;SDS011;21464;48.112;11.530;2023-03-03T02:11:30;61.20;;;32.43;;
35364;SDS011;21464;48.112;11.530;2023-03-03T02:13:58;65.00;;;33.03;;
35364;SDS011;21464;48.112;11.530;2023-03-03T02:16:24;67.53;;;34.07;;
35364;SDS011;21464;48.112;11.530;2023-03-03T02:18:50;67.83;;;34.43;;
35364;SDS011;21464;48.112;11.530;2023-03-03T02:21:20;63.57;;;32.37;;
35364;SDS011;21464;48.112;11.530;2023-03-03T02:24:02;62.10;;;32.50;;
35364;SDS011;21464;48.112;11.530;2023-03-03T02:26:34;73.37;;;35.23;;
35364;SDS011;21464;48.112;11.530;2023-03-03T02:29:06;64.03;;;32.47;;
35364;SDS011;21464;48.112;11.530;2023-03-03T02:31:34;68.67;;;32.53;;
35364;SDS011;21464;48.112;11.530;2023-03-03T02:34:00;62.70;;;33.90;;
35364;SDS011;21464;48.112;11.530;2023-03-03T02:36:31;62.33;;;32.33;;
35364;SDS011;21464;48.112;11.530;2023-03-03T02:41:57;67.80;;;34.33;;
35364;SDS011;21464;48.112;11.530;2023-03-03T02:44:49;70.13;;;34.20;;
35364;SDS011;21464;48.112;11.530;2023-03-03T02:47:16;72.63;;;35.20;;
35364;SDS011;21464;48.112;11.530;2023-03-03T02:49:42;71.87;;;34.17;;
35364;SDS011;21464;48.112;11.530;2023-03-03T02:52:10;70.13;;;36.37;;
35364;SDS011;21464;48.112;11.530;2023-03-03T02:54:39;72.40;;;35.50;;
35364;SDS011;21464;48.112;11.530;2023-03-03T02:57:06;65.97;;;35.13;;
35364;SDS011;21464;48.112;11.530;2023-03-03T02:59:33;67.03;;;32.50;;
35364;SDS011;21464;48.112;11.530;2023-03-03T03:02:07;70.83;;;35.17;;
35364;SDS011;21464;48.112;11.530;2023-03-03T03:04:34;66.13;;;34.07;;
35364;SDS011;21464;48.112;11.530;2023-03-03T03:07:00;68.00;;;34.47;;
35364;SDS011;21464;48.112;11.530;2023-03-03T03:09:30;65.30;;;34.50;;
35364;SDS011;21464;48.112;11.530;2023-03-03T03:11:56;64.43;;;33.83;;
35364;SDS011;21464;48.112;11.530;2023-03-03T03:14:25;69.03;;;33.90;;
35364;SDS011;21464;48.112;11.530;2023-03-03T03:16:53;62.87;;;34.37;;
35364;SDS011;21464;48.112;11.530;2023-03-03T03:19:19;66.00;;;34.47;;
35364;SDS011;21464;48.112;11.530;2023-03-03T03:21:46;64.40;;;33.87;;
35364;SDS011;21464;48.112;11.530;2023-03-03T03:24:12;65.23;;;33.57;;
35364;SDS011;21464;48.112;11.530;2023-03-03T03:26:43;68.27;;;34.00;;
35364;SDS011;21464;48.112;11.530;2023-03-03T03:29:10;65.70;;;35.00;;
35364;SDS011;21464;48.112;11.530;2023-03-03T03:31:36;61.80;;;34.77;;
35364;SDS011;21464;48.112;11.530;2023-03-03T03:34:04;67.33;;;34.73;;
35364;SDS011;21464;48.112;11.530;2023-03-03T03:36:30;64.37;;;33.83;;
35364;SDS011;21464;48.112;11.530;2023-03-03T03:38:57;65.63;;;34.77;;
35364;SDS011;21464;48.112;11.530;2023-03-03T03:41:23;63.97;;;33.90;;
35364;SDS011;21464;48.112;11.530;2023-03-03T03:43:49;67.87;;;35.87;;
35364;SDS011;21464;48.112;11.530;2023-03-03T03:46:15;65.90;;;35.13;;
35364;SDS011;21464;48.112;11.530;2023-03-03T03:48:42;70.57;;;34.63;;
35364;SDS011;21464;48.112;11.530;2023-03-03T03:51:11;71.53;;;34.80;;
35364;SDS011;21464;48.112;11.530;2023-03-03T03:53:38;66.30;;;33.87;;
35364;SDS011;21464;48.112;11.530;2023-03-03T03:56:05;67.90;;;34.77;;
35364;SDS011;21464;48.112;11.530;2023-03-03T03:58:32;60.13;;;34.03;;
35364;SDS011;21464;48.112;11.530;2023-03-03T04:01:03;69.17;;;35.27;;
35364;SDS011;21464;48.112;11.530;2023-03-03T04:03:31;72.27;;;37.70;;
35364;SDS011;21464;48.112;11.530;2023-03-03T04:05:58;64.43;;;34.47;;
35364;SDS011;21464;48.112;11.530;2023-03-03T04:08:24;65.37;;;34.83;;
35364;SDS011;21464;48.112;11.530;2023-03-03T04:10:50;66.93;;;33.67;;
35364;SDS011;21464;48.112;11.530;2023-03-03T04:13:17;68.27;;;34.80;;
35364;SDS011;21464;48.112;11.530;2023-03-03T04:15:44;72.13;;;34.47;;
35364;SDS011;21464;48.112;11.530;2023-03-03T04:18:10;60.33;;;33.73;;
35364;SDS011;21464;48.112;11.530;2023-03-03T04:20:38;72.20;;;35.33;;
35364;SDS011;21464;48.112;11.530;2023-03-03T04:23:06;70.87;;;35.87;;
35364;SDS011;21464;48.112;11.530;2023-03-03T04:25:32;70.30;;;34.47;;
35364;SDS011;21464;48.112;11.530;2023-03-03T04:27:58;70.30;;;36.27;;
35364;SDS011;21464;48.112;11.530;2023-03-03T04:30:25;65.87;;;35.33;;
35364;SDS011;21464;48.112;11.530;2023-03-03T04:32:54;65.33;;;34.17;;
35364;SDS011;21464;48.112;11.530;2023-03-03T04:35:24;78.07;;;36.27;;
35364;SDS011;21464;48.112;11.530;2023-03-03T04:37:50;66.53;;;34.37;;
35364;SDS011;21464;48.112;11.530;2023-03-03T04:40:16;74.27;;;35.80;;
35364;SDS011;21464;48.112;11.530;2023-03-03T04:42:45;67.17;;;34.80;;
35364;SDS011;21464;48.112;11.530;2023-03-03T04:45:12;62.97;;;34.03;;
35364;SDS011;21464;48.112;11.530;2023-03-03T04:47:39;63.73;;;35.30;;
35364;SDS011;21464;48.112;11.530;2023-03-03T04:50:06;73.63;;;36.83;;
35364;SDS011;21464;48.112;11.530;2023-03-03T04:52:34;71.17;;;35.13;;
35364;SDS011;21464;48.112;11.530;2023-03-03T04:55:02;63.93;;;35.97;;
35364;SDS011;21464;48.112;11.530;2023-03-03T04:57:29;62.07;;;34.43;;
35364;SDS011;21464;48.112;11.530;2023-03-03T04:59:56;68.87;;;36.00;;
35364;SDS011;21464;48.112;11.530;2023-03-03T05:02:23;67.97;;;36.43;;
35364;SDS011;21464;48.112;11.530;2023-03-03T05:04:49;69.00;;;36.40;;
35364;SDS011;21464;48.112;11.530;2023-03-03T05:07:15;70.33;;;34.07;;
35364;SDS011;21464;48.112;11.530;2023-03-03T05:09:44;64.10;;;35.27;;
35364;SDS011;21464;48.112;11.530;2023-03-03T05:12:10;72.37;;;36.27;;
35364;SDS011;21464;48.112;11.530;2023-03-03T05:14:36;66.97;;;35.57;;
35364;SDS011;21464;48.112;11.530;2023-03-03T05:17:02;66.63;;;35.77;;
35364;SDS011;21464;48.112;11.530;2023-03-03T05:19:30;70.23;;;36.50;;
35364;SDS011;21464;48.112;11.530;2023-03-03T05:21:57;74.93;;;38.10;;
35364;SDS011;21464;48.112;11.530;2023-03-03T05:24:23;70.27;;;35.60;;
35364;SDS011;21464;48.112;11.530;2023-03-03T05:26:49;70.83;;;37.07;;
35364;SDS011;21464;48.112;11.530;2023-03-03T05:29:16;76.37;;;37.90;;
35364;SDS011;21464;48.112;11.530;2023-03-03T05:31:42;69.03;;;35.80;;
35364;SDS011;21464;48.112;11.530;2023-03-03T05:34:08;74.93;;;36.97;;
35364;SDS011;21464;48.112;11.530;2023-03-03T05:36:34;76.43;;;41.40;;
35364;SDS011;21464;48.112;11.530;2023-03-03T05:39:01;72.03;;;38.53;;
35364;SDS011;21464;48.112;11.530;2023-03-03T05:41:27;71.90;;;36.73;;
35364;SDS011;21464;48.112;11.530;2023-03-03T05:43:53;68.70;;;35.53;;
35364;SDS011;21464;48.112;11.530;2023-03-03T05:46:19;85.03;;;43.47;;
35364;SDS011;21464;48.112;11.530;2023-03-03T05:48:46;80.63;;;42.33;;
35364;SDS011;21464;48.112;11.530;2023-03-03T05:51:12;74.57;;;39.97;;
35364;SDS011;21464;48.112;11.530;2023-03-03T05:53:38;70.13;;;36.07;;
35364;SDS011;21464;48.112;11.530;2023-03-03T05:56:05;78.47;;;39.43;;
35364;SDS011;21464;48.112;11.530;2023-03-03T05:58:31;81.37;;;37.83;;
35364;SDS011;21464;48.112;11.530;2023-03-03T06:00:57;72.97;;;37.60;;
35364;SDS011;21464;48.112;11.530;2023-03-03T06:03:24;82.27;;;39.57;;
35364;SDS011;21464;48.112;11.530;2023-03-03T06:05:50;72.60;;;38.60;;
35364;SDS011;21464;48.112;11.530;2023-03-03T06:08:16;81.83;;;39.20;;
35364;SDS011;21464;48.112;11.530;2023-03-03T06:10:42;72.07;;;38.27;;
35364;SDS011;21464;48.112;11.530;2023-03-03T06:13:10;78.90;;;38.73;;
35364;SDS011;21464;48.112;11.530;2023-03-03T06:15:37;74.57;;;36.83;;
35364;SDS011;21464;48.112;11.530;2023-03-03T06:18:03;75.67;;;38.60;;
35364;SDS011;21464;48.112;11.530;2023-03-03T06:20:29;70.70;;;37.67;;
35364;SDS011;21464;48.112;11.530;2023-03-03T06:22:56;71.27;;;37.80;;
35364;SDS011;21464;48.112;11.530;2023-03-03T06:25:23;76.63;;;38.20;;
35364;SDS011;21464;48.112;11.530;2023-03-03T06:27:49;81.60;;;39.33;;
35364;SDS011;21464;48.112;11.530;2023-03-03T06:30:15;70.80;;;37.73;;
35364;SDS011;21464;48.112;11.530;2023-03-03T06:32:42;79.63;;;40.43;;
35364;SDS011;21464;48.112;11.530;2023-03-03T06:35:08;71.50;;;37.93;;
35364;SDS011;21464;48.112;11.530;2023-03-03T06:37:34;79.87;;;40.40;;
35364;SDS011;21464;48.112;11.530;2023-03-03T06:40:00;76.57;;;40.47;;
35364;SDS011;21464;48.112;11.530;2023-03-03T06:42:27;74.63;;;36.43;;
35364;SDS011;21464;48.112;11.530;2023-03-03T06:44:53;78.73;;;39.70;;
35364;SDS011;21464;48.112;11.530;2023-03-03T06:47:19;80.37;;;40.63;;
35364;SDS011;21464;48.112;11.530;2023-03-03T06:49:45;77.93;;;41.53;;
35364;SDS011;21464;48.112;11.530;2023-03-03T06:52:13;82.60;;;40.60;;
35364;SDS011;21464;48.112;11.530;2023-03-03T06:54:41;83.60;;;41.73;;
35364;SDS011;21464;48.112;11.530;2023-03-03T06:57:13;81.37;;;41.50;;
35364;SDS011;21464;48.112;11.530;2023-03-03T07:00:11;81.40;;;40.10;;
35364;SDS011;21464;48.112;11.530;2023-03-03T07:02:38;73.17;;;39.63;;
35364;SDS011;21464;48.112;11.530;2023-03-03T07:05:08;79.60;;;41.90;;
35364;SDS011;21464;48.112;11.530;2023-03-03T07:07:38;80.07;;;40.30;;
35364;SDS011;21464;48.112;11.530;2023-03-03T07:12:53;77.70;;;42.73;;
35364;SDS011;21464;48.112;11.530;2023-03-03T07:15:24;88.97;;;42.77;;
35364;SDS011;21464;48.112;11.530;2023-03-03T07:17:55;77.60;;;41.23;;
35364;SDS011;21464;48.112;11.530;2023-03-03T07:20:32;77.50;;;41.07;;
35364;SDS011;21464;48.112;11.530;2023-03-03T07:23:07;80.27;;;40.33;;
35364;SDS011;21464;48.112;11.530;2023-03-03T07:25:44;78.00;;;39.47;;
35364;SDS011;21464;48.112;11.530;2023-03-03T07:30:46;80.57;;;41.43;;
35364;SDS011;21464;48.112;11.530;2023-03-03T07:33:33;84.17;;;43.17;;
35364;SDS011;21464;48.112;11.530;2023-03-03T07:36:01;81.57;;;43.50;;
35364;SDS011;21464;48.112;11.530;2023-03-03T07:38:39;88.40;;;44.20;;
35364;SDS011;21464;48.112;11.530;2023-03-03T07:41:14;85.23;;;41.90;;
35364;SDS011;21464;48.112;11.530;2023-03-03T07:43:49;76.53;;;40.50;;
35364;SDS011;21464;48.112;11.530;2023-03-03T07:46:21;79.03;;;44.20;;
35364;SDS011;21464;48.112;11.530;2023-03-03T07:48:55;80.57;;;41.13;;
35364;SDS011;21464;48.112;11.530;2023-03-03T07:53:53;81.07;;;44.10;;
35364;SDS011;21464;48.112;11.530;2023-03-03T07:56:30;77.77;;;40.30;;
35364;SDS011;21464;48.112;11.530;2023-03-03T07:59:00;86.10;;;42.60;;
35364;SDS011;21464;48.112;11.530;2023-03-03T08:04:09;87.37;;;43.80;;
35364;SDS011;21464;48.112;11.530;2023-03-03T08:06:43;84.30;;;43.50;;
35364;SDS011;21464;48.112;11.530;2023-03-03T08:09:18;77.33;;;42.90;;
35364;SDS011;21464;48.112;11.530;2023-03-03T08:11:52;87.27;;;43.87;;
35364;SDS011;21464;48.112;11.530;2023-03-03T08:14:28;80.07;;;42.20;;
35364;SDS011;21464;48.112;11.530;2023-03-03T08:16:56;76.87;;;41.60;;
35364;SDS011;21464;48.112;11.530;2023-03-03T08:19:23;80.17;;;42.37;;
35364;SDS011;21464;48.112;11.530;2023-03-03T08:21:50;75.73;;;40.37;;
35364;SDS011;21464;48.112;11.530;2023-03-03T08:24:16;79.07;;;42.53;;
35364;SDS011;21464;48.112;11.530;2023-03-03T08:26:42;67.23;;;37.00;;
35364;SDS011;21464;48.112;11.530;2023-03-03T08:29:09;76.07;;;42.00;;
35364;SDS011;21464;48.112;11.530;2023-03-03T08:31:36;80.53;;;42.87;;
35364;SDS011;21464;48.112;11.530;2023-03-03T08:34:03;78.60;;;42.83;;
35364;SDS011;21464;48.112;11.530;2023-03-03T08:36:29;77.27;;;41.67;;
35364;SDS011;21464;48.112;11.530;2023-03-03T08:38:56;67.33;;;39.43;;
35364;SDS011;21464;48.112;11.530;2023-03-03T08:41:22;79.53;;;41.00;;
35364;SDS011;21464;48.112;11.530;2023-03-03T08:43:48;67.27;;;38.50;;
35364;SDS011;21464;48.112;11.530;2023-03-03T08:46:14;72.17;;;40.90;;
35364;SDS011;21464;48.112;11.530;2023-03-03T08:48:40;73.60;;;41.27;;
35364;SDS011;21464;48.112;11.530;2023-03-03T08:51:07;67.70;;;39.80;;
35364;SDS011;21464;48.112;11.530;2023-03-03T08:53:35;67.83;;;39.47;;
35364;SDS011;21464;48.112;11.530;2023-03-03T08:56:01;71.27;;;40.53;;
35364;SDS011;21464;48.112;11.530;2023-03-03T08:58:27;71.53;;;39.93;;
35364;SDS011;21464;48.112;11.530;2023-03-03T09:00:54;69.47;;;40.17;;
35364;SDS011;21464;48.112;11.530;2023-03-03T09:03:20;68.97;;;39.37;;
35364;SDS011;21464;48.112;11.530;2023-03-03T09:05:46;63.23;;;36.20;;
35364;SDS011;21464;48.112;11.530;2023-03-03T09:08:12;73.17;;;41.50;;
35364;SDS011;21464;48.112;11.530;2023-03-03T09:10:39;72.03;;;41.03;;
35364;SDS011;21464;48.112;11.530;2023-03-03T09:13:09;74.73;;;40.60;;
35364;SDS011;21464;48.112;11.530;2023-03-03T09:15:40;66.13;;;39.70;;
35364;SDS011;21464;48.112;11.530;2023-03-03T09:18:13;67.70;;;40.30;;
35364;SDS011;21464;48.112;11.530;2023-03-03T09:20:42;67.27;;;36.87;;
35364;SDS011;21464;48.112;11.530;2023-03-03T09:28:54;69.33;;;40.53;;
35364;SDS011;21464;48.112;11.530;2023-03-03T09:33:47;71.33;;;42.33;;
35364;SDS011;21464;48.112;11.530;2023-03-03T09:36:27;62.67;;;38.07;;
35364;SDS011;21464;48.112;11.530;2023-03-03T09:38:57;66.17;;;39.90;;
35364;SDS011;21464;48.112;11.530;2023-03-03T09:44:41;65.33;;;39.37;;
35364;SDS011;21464;48.112;11.530;2023-03-03T09:51:18;62.87;;;40.63;;
35364;SDS011;21464;48.112;11.530;2023-03-03T10:01:42;63.03;;;39.60;;
35364;SDS011;21464;48.112;11.530;2023-03-03T10:09:34;61.83;;;38.83;;
35364;SDS011;21464;48.112;11.530;2023-03-03T10:12:06;62.97;;;40.60;;
35364;SDS011;21464;48.112;11.530;2023-03-03T10:19:58;63.27;;;39.07;;
35364;SDS011;21464;48.112;11.530;2023-03-03T10:38:35;57.23;;;37.10;;
35364;SDS011;21464;48.112;11.530;2023-03-03T10:41:22;55.63;;;37.67;;
35364;SDS011;21464;48.112;11.530;2023-03-03T10:49:33;58.43;;;37.30;;
35364;SDS011;21464;48.112;11.530;2023-03-03T10:55:34;56.63;;;37.93;;
35364;SDS011;21464;48.112;11.530;2023-03-03T11:00:44;56.47;;;35.67;;
35364;SDS011;21464;48.112;11.530;2023-03-03T11:08:48;64.53;;;38.07;;
35364;SDS011;21464;48.112;11.530;2023-03-03T11:17:02;58.77;;;36.93;;
35364;SDS011;21464;48.112;11.530;2023-03-03T11:24:56;57.53;;;37.80;;
35364;SDS011;21464;48.112;11.530;2023-03-03T11:30:49;54.27;;;38.10;;
35364;SDS011;21464;48.112;11.530;2023-03-03T11:32:58;58.60;;;38.10;;
35364;SDS011;21464;48.112;11.530;2023-03-03T11:35:26;58.43;;;36.80;;
35364;SDS011;21464;48.112;11.530;2023-03-03T11:40:50;54.67;;;36.97;;
35364;SDS011;21464;48.112;11.530;2023-03-03T11:43:31;57.93;;;36.67;;
35364;SDS011;21464;48.112;11.530;2023-03-03T11:46:08;54.73;;;37.73;;
35364;SDS011;21464;48.112;11.530;2023-03-03T11:48:43;64.90;;;38.63;;
35364;SDS011;21464;48.112;11.530;2023-03-03T11:51:31;62.30;;;37.93;;
35364;SDS011;21464;48.112;11.530;2023-03-03T11:54:08;60.87;;;37.17;;
35364;SDS011;21464;48.112;11.530;2023-03-03T11:57:14;73.30;;;44.80;;
35364;SDS011;21464;48.112;11.530;2023-03-03T12:00:15;54.50;;;35.93;;
35364;SDS011;21464;48.112;11.530;2023-03-03T12:03:08;52.10;;;36.27;;
35364;SDS011;21464;48.112;11.530;2023-03-03T12:11:49;59.57;;;37.70;;
35364;SDS011;21464;48.112;11.530;2023-03-03T12:17:20;56.43;;;38.17;;
35364;SDS011;21464;48.112;11.530;2023-03-03T12:19:58;56.70;;;35.23;;
35364;SDS011;21464;48.112;11.530;2023-03-03T12:22:33;55.03;;;37.20;;
35364;SDS011;21464;48.112;11.530;2023-03-03T12:25:08;54.97;;;37.13;;
35364;SDS011;21464;48.112;11.530;2023-03-03T12:46:44;56.37;;;37.67;;
35364;SDS011;21464;48.112;11.530;2023-03-03T12:49:16;58.07;;;37.10;;
35364;SDS011;21464;48.112;11.530;2023-03-03T12:51:47;65.97;;;39.87;;
35364;SDS011;21464;48.112;11.530;2023-03-03T13:05:55;51.93;;;36.07;;
35364;SDS011;21464;48.112;11.530;2023-03-03T13:19:51;53.67;;;37.97;;
35364;SDS011;21464;48.112;11.530;2023-03-03T13:27:39;52.87;;;36.67;;
35364;SDS011;21464;48.112;11.530;2023-03-03T13:35:37;54.70;;;35.57;;
35364;SDS011;21464;48.112;11.530;2023-03-03T13:38:19;55.20;;;35.93;;
35364;SDS011;21464;48.112;11.530;2023-03-03T13:43:34;57.43;;;36.73;;
35364;SDS011;21464;48.112;11.530;2023-03-03T13:46:13;52.78;;;35.65;;
35364;SDS011;21464;48.112;11.530;2023-03-03T13:48:50;53.77;;;35.13;;
35364;SDS011;21464;48.112;11.530;2023-03-03T13:54:46;44.63;;;32.97;;
35364;SDS011;21464;48.112;11.530;2023-03-03T13:57:31;44.97;;;31.52;;
35364;SDS011;21464;48.112;11.530;2023-03-03T14:00:20;46.92;;;33.22;;
35364;SDS011;21464;48.112;11.530;2023-03-03T14:05:26;46.03;;;33.70;;
35364;SDS011;21464;48.112;11.530;2023-03-03T14:10:33;46.58;;;33.97;;
35364;SDS011;21464;48.112;11.530;2023-03-03T14:13:13;42.65;;;33.58;;
35364;SDS011;21464;48.112;11.530;2023-03-03T14:15:54;44.83;;;34.42;;
35364;SDS011;21464;48.112;11.530;2023-03-03T14:18:26;42.78;;;34.00;;
35364;SDS011;21464;48.112;11.530;2023-03-03T14:20:57;45.33;;;33.88;;
35364;SDS011;21464;48.112;11.530;2023-03-03T14:23:37;47.78;;;34.85;;
35364;SDS011;21464;48.112;11.530;2023-03-03T14:26:16;47.30;;;34.67;;
35364;SDS011;21464;48.112;11.530;2023-03-03T14:28:44;42.47;;;33.53;;
35364;SDS011;21464;48.112;11.530;2023-03-03T14:31:17;44.83;;;34.22;;
35364;SDS011;21464;48.112;11.530;2023-03-03T14:36:27;48.85;;;33.80;;
35364;SDS011;21464;48.112;11.530;2023-03-03T14:38:58;46.13;;;34.25;;
35364;SDS011;21464;48.112;11.530;2023-03-03T14:41:34;46.47;;;33.90;;
35364;SDS011;21464;48.112;11.530;2023-03-03T14:44:23;44.67;;;32.85;;
35364;SDS011;21464;48.112;11.530;2023-03-03T14:49:38;45.15;;;34.20;;
35364;SDS011;21464;48.112;11.530;2023-03-03T14:54:41;43.97;;;32.00;;
35364;SDS011;21464;48.112;11.530;2023-03-03T14:57:15;46.83;;;33.45;;
35364;SDS011;21464;48.112;11.530;2023-03-03T15:05:48;44.67;;;32.28;;
35364;SDS011;21464;48.112;11.530;2023-03-03T15:08:23;45.97;;;33.42;;
35364;SDS011;21464;48.112;11.530;2023-03-03T15:10:57;43.72;;;33.00;;
35364;SDS011;21464;48.112;11.530;2023-03-03T15:13:37;44.08;;;33.00;;
35364;SDS011;21464;48.112;11.530;2023-03-03T15:16:08;47.70;;;33.50;;
35364;SDS011;21464;48.112;11.530;2023-03-03T15:27:56;44.88;;;31.27;;
35364;SDS011;21464;48.112;11.530;2023-03-03T15:30:38;46.05;;;33.05;;
35364;SDS011;21464;48.112;11.530;2023-03-03T15:39:02;45.85;;;32.25;;
35364;SDS011;21464;48.112;11.530;2023-03-03T15:41:53;44.53;;;32.20;;
35364;SDS011;21464;48.112;11.530;2023-03-03T15:44:31;41.83;;;30.83;;
35364;SDS011;21464;48.112;11.530;2023-03-03T15:47:14;43.28;;;32.20;;
35364;SDS011;21464;48.112;11.530;2023-03-03T15:50:04;44.28;;;32.47;;
35364;SDS011;21464;48.112;11.530;2023-03-03T15:58:03;44.72;;;34.22;;
35364;SDS011;21464;48.112;11.530;2023-03-03T16:03:30;47.80;;;33.53;;
35364;SDS011;21464;48.112;11.530;2023-03-03T16:08:44;43.63;;;31.95;;
35364;SDS011;21464;48.112;11.530;2023-03-03T16:11:24;44.33;;;32.75;;
35364;SDS011;21464;48.112;11.530;2023-03-03T16:13:58;47.33;;;32.55;;
35364;SDS011;21464;48.112;11.530;2023-03-03T16:16:53;40.90;;;31.55;;
35364;SDS011;21464;48.112;11.530;2023-03-03T16:19:48;42.00;;;31.98;;
35364;SDS011;21464;48.112;11.530;2023-03-03T16:27:48;42.40;;;30.97;;
35364;SDS011;21464;48.112;11.530;2023-03-03T16:35:43;47.97;;;33.10;;
35364;SDS011;21464;48.112;11.530;2023-03-03T16:38:28;40.97;;;30.00;;
35364;SDS011;21464;48.112;11.530;2023-03-03T16:41:00;43.33;;;31.37;;
35364;SDS011;21464;48.112;11.530;2023-03-03T16:52:06;46.10;;;32.38;;
35364;SDS011;21464;48.112;11.530;2023-03-03T16:54:41;44.17;;;32.77;;
35364;SDS011;21464;48.112;11.530;2023-03-03T17:00:26;50.57;;;34.37;;
35364;SDS011;21464;48.112;11.530;2023-03-03T17:05:46;47.63;;;33.77;;
35364;SDS011;21464;48.112;11.530;2023-03-03T17:19:29;46.10;;;33.67;;
35364;SDS011;21464;48.112;11.530;2023-03-03T17:24:44;50.67;;;34.90;;
35364;SDS011;21464;48.112;11.530;2023-03-03T17:27:24;53.03;;;36.27;;
35364;SDS011;21464;48.112;11.530;2023-03-03T17:30:22;48.30;;;34.77;;
35364;SDS011;21464;48.112;11.530;2023-03-03T17:33:04;51.80;;;34.93;;
35364;SDS011;21464;48.112;11.530;2023-03-03T17:46:14;55.50;;;36.13;;
35364;SDS011;21464;48.112;11.530;2023-03-03T17:51:45;52.78;;;36.30;;
35364;SDS011;21464;48.112;11.530;2023-03-03T17:57:10;53.17;;;35.33;;
35364;SDS011;21464;48.112;11.530;2023-03-03T18:00:02;55.30;;;34.83;;
35364;SDS011;21464;48.112;11.530;2023-03-03T18:25:00;58.57;;;36.53;;
35364;SDS011;21464;48.112;11.530;2023-03-03T18:27:37;54.73;;;37.77;;
35364;SDS011;21464;48.112;11.530;2023-03-03T18:35:21;58.20;;;38.87;;
35364;SDS011;21464;48.112;11.530;2023-03-03T18:37:47;60.73;;;39.67;;
35364;SDS011;21464;48.112;11.530;2023-03-03T18:40:17;55.10;;;39.27;;
35364;SDS011;21464;48.112;11.530;2023-03-03T18:42:46;59.70;;;38.33;;
35364;SDS011;21464;48.112;11.530;2023-03-03T18:50:32;53.97;;;37.07;;
35364;SDS011;21464;48.112;11.530;2023-03-03T18:55:39;61.30;;;38.17;;
35364;SDS011;21464;48.112;11.530;2023-03-03T19:06:53;57.63;;;36.60;;
35364;SDS011;21464;48.112;11.530;2023-03-03T19:09:18;56.57;;;36.90;;
35364;SDS011;21464;48.112;11.530;2023-03-03T19:11:54;62.03;;;37.90;;
35364;SDS011;21464;48.112;11.530;2023-03-03T19:16:51;57.67;;;36.97;;
35364;SDS011;21464;48.112;11.530;2023-03-03T19:19:22;55.80;;;37.87;;
35364;SDS011;21464;48.112;11.530;2023-03-03T19:21:50;58.53;;;38.63;;
35364;SDS011;21464;48.112;11.530;2023-03-03T19:24:37;59.27;;;37.40;;
35364;SDS011;21464;48.112;11.530;2023-03-03T19:27:19;56.73;;;38.17;;
35364;SDS011;21464;48.112;11.530;2023-03-03T19:29:58;57.73;;;37.93;;
35364;SDS011;21464;48.112;11.530;2023-03-03T19:32:34;58.13;;;38.63;;
35364;SDS011;21464;48.112;11.530;2023-03-03T19:38:17;62.10;;;39.20;;
35364;SDS011;21464;48.112;11.530;2023-03-03T19:41:00;58.53;;;40.10;;
35364;SDS011;21464;48.112;11.530;2023-03-03T19:46:59;56.57;;;37.10;;
35364;SDS011;21464;48.112;11.530;2023-03-03T20:03:00;66.33;;;41.23;;
35364;SDS011;21464;48.112;11.530;2023-03-03T20:05:55;60.30;;;40.43;;
35364;SDS011;21464;48.112;11.530;2023-03-03T20:08:30;63.37;;;41.60;;
35364;SDS011;21464;48.112;11.530;2023-03-03T20:19:09;66.47;;;41.80;;
35364;SDS011;21464;48.112;11.530;2023-03-03T20:27:35;64.47;;;41.23;;